sensor_id;sensor_type;location;lat;lon;timestamp;temperature;humidity
52435;DHT22;38354;52.892;6.148;2022-10-16T04:02:06;13.30;99.90
52435;DHT22;38354;52.892;6.148;2022-10-16T04:04:31;13.20;99.90
52435;DHT22;38354;52.892;6.148;2022-10-16T04:06:57;13.20;99.90
52435;DHT22;38354;52.892;6.148;2022-10-16T04:09:22;13.20;99.90
52435;DHT22;38354;52.892;6.148;2022-10-16T04:11:48;13.20;99.90
52435;DHT22;38354;52.892;6.148;2022-10-16T04:14:14;13.20;99.90
52435;DHT22;38354;52.892;6.148;2022-10-16T04:16:39;13.20;99.90
52435;DHT22;38354;52.892;6.148;2022-10-16T04:19:05;13.20;99.90
52435;DHT22;38354;52.892;6.148;2022-10-16T04:21:30;13.20;99.90
52435;DHT22;38354;52.892;6.148;2022-10-16T04:23:56;13.20;99.90
52435;DHT22;38354;52.892;6.148;2022-10-16T04:26:22;13.20;99.90
52435;DHT22;38354;52.892;6.148;2022-10-16T04:28:47;13.10;99.90
52435;DHT22;38354;52.892;6.148;2022-10-16T04:31:13;13.20;99.90
52435;DHT22;38354;52.892;6.148;2022-10-16T04:33:38;13.20;99.90
52435;DHT22;38354;52.892;6.148;2022-10-16T04:36:08;13.20;99.90
52435;DHT22;38354;52.892;6.148;2022-10-16T04:38:33;13.20;99.90
52435;DHT22;38354;52.892;6.148;2022-10-16T04:40:59;13.20;99.90
52435;DHT22;38354;52.892;6.148;2022-10-16T04:43:25;13.20;99.90
52435;DHT22;38354;52.892;6.148;2022-10-16T04:45:51;13.20;99.90
52435;DHT22;38354;52.892;6.148;2022-10-16T04:48:17;13.20;99.90
52435;DHT22;38354;52.892;6.148;2022-10-16T04:50:43;13.20;99.90
52435;DHT22;38354;52.892;6.148;2022-10-16T04:53:09;13.10;99.90
52435;DHT22;38354;52.892;6.148;2022-10-16T04:55:34;13.20;99.90
52435;DHT22;38354;52.892;6.148;2022-10-16T04:58:00;13.20;99.90
52435;DHT22;38354;52.892;6.148;2022-10-16T05:00:26;13.10;99.90
52435;DHT22;38354;52.892;6.148;2022-10-16T05:02:52;13.10;99.90
52435;DHT22;38354;52.892;6.148;2022-10-16T05:05:18;13.20;99.90
52435;DHT22;38354;52.892;6.148;2022-10-16T05:07:47;13.10;99.90
52435;DHT22;38354;52.892;6.148;2022-10-16T05:10:13;13.10;99.90
52435;DHT22;38354;52.892;6.148;2022-10-16T05:12:39;13.10;99.90
52435;DHT22;38354;52.892;6.148;2022-10-16T05:15:05;13.10;99.90
52435;DHT22;38354;52.892;6.148;2022-10-16T05:17:30;13.10;99.90
52435;DHT22;38354;52.892;6.148;2022-10-16T05:19:56;13.10;99.90
52435;DHT22;38354;52.892;6.148;2022-10-16T05:22:22;13.10;99.90
52435;DHT22;38354;52.892;6.148;2022-10-16T05:24:47;13.10;99.90
52435;DHT22;38354;52.892;6.148;2022-10-16T05:27:13;13.10;99.90
52435;DHT22;38354;52.892;6.148;2022-10-16T05:29:45;13.10;99.90
52435;DHT22;38354;52.892;6.148;2022-10-16T05:32:12;13.10;99.90
52435;DHT22;38354;52.892;6.148;2022-10-16T05:34:38;13.10;99.90
52435;DHT22;38354;52.892;6.148;2022-10-16T05:37:04;13.10;99.90
52435;DHT22;38354;52.892;6.148;2022-10-16T05:39:30;13.10;99.90
52435;DHT22;38354;52.892;6.148;2022-10-16T05:41:55;13.10;99.90
52435;DHT22;38354;52.892;6.148;2022-10-16T05:44:21;13.10;99.90
52435;DHT22;38354;52.892;6.148;2022-10-16T05:46:47;13.10;99.90
52435;DHT22;38354;52.892;6.148;2022-10-16T05:49:13;13.10;99.90
52435;DHT22;38354;52.892;6.148;2022-10-16T05:51:38;13.10;99.90
52435;DHT22;38354;52.892;6.148;2022-10-16T05:54:04;13.00;99.90
52435;DHT22;38354;52.892;6.148;2022-10-16T05:56:29;13.10;99.90
52435;DHT22;38354;52.892;6.148;2022-10-16T05:58:55;13.10;99.90
52435;DHT22;38354;52.892;6.148;2022-10-16T06:01:21;13.00;99.90
52435;DHT22;38354;52.892;6.148;2022-10-16T06:03:50;13.00;99.90
52435;DHT22;38354;52.892;6.148;2022-10-16T06:06:21;13.00;99.90
52435;DHT22;38354;52.892;6.148;2022-10-16T06:08:47;13.10;99.90
52435;DHT22;38354;52.892;6.148;2022-10-16T06:11:22;13.00;99.90
52435;DHT22;38354;52.892;6.148;2022-10-16T06:13:55;13.00;99.90
52435;DHT22;38354;52.892;6.148;2022-10-16T06:16:26;13.00;99.90
52435;DHT22;38354;52.892;6.148;2022-10-16T06:18:53;13.00;99.90
52435;DHT22;38354;52.892;6.148;2022-10-16T06:21:24;13.00;99.90
52435;DHT22;38354;52.892;6.148;2022-10-16T06:23:56;13.00;99.90
52435;DHT22;38354;52.892;6.148;2022-10-16T06:26:27;12.90;99.90
52435;DHT22;38354;52.892;6.148;2022-10-16T06:28:58;12.90;99.90
52435;DHT22;38354;52.892;6.148;2022-10-16T06:31:24;12.90;99.90
52435;DHT22;38354;52.892;6.148;2022-10-16T06:33:54;12.90;99.90
52435;DHT22;38354;52.892;6.148;2022-10-16T06:36:20;12.90;99.90
52435;DHT22;38354;52.892;6.148;2022-10-16T06:38:46;13.00;99.90
52435;DHT22;38354;52.892;6.148;2022-10-16T06:41:14;12.90;99.90
52435;DHT22;38354;52.892;6.148;2022-10-16T06:43:40;12.90;99.90
52435;DHT22;38354;52.892;6.148;2022-10-16T06:46:10;12.90;99.90
52435;DHT22;38354;52.892;6.148;2022-10-16T06:48:36;12.90;99.90
52435;DHT22;38354;52.892;6.148;2022-10-16T06:53:44;12.90;99.90
52435;DHT22;38354;52.892;6.148;2022-10-16T06:56:17;13.00;99.90
52435;DHT22;38354;52.892;6.148;2022-10-16T06:58:44;13.00;99.90
52435;DHT22;38354;52.892;6.148;2022-10-16T07:01:11;13.00;99.90
52435;DHT22;38354;52.892;6.148;2022-10-16T07:03:38;13.00;99.90
52435;DHT22;38354;52.892;6.148;2022-10-16T07:06:05;13.00;99.90
52435;DHT22;38354;52.892;6.148;2022-10-16T07:08:32;13.00;99.90
52435;DHT22;38354;52.892;6.148;2022-10-16T07:11:05;13.10;99.90
52435;DHT22;38354;52.892;6.148;2022-10-16T07:13:36;13.10;99.90
52435;DHT22;38354;52.892;6.148;2022-10-16T07:16:13;13.10;99.90
52435;DHT22;38354;52.892;6.148;2022-10-16T07:18:39;13.10;99.90
52435;DHT22;38354;52.892;6.148;2022-10-16T07:21:20;13.10;99.90
52435;DHT22;38354;52.892;6.148;2022-10-16T07:23:50;13.10;99.90
52435;DHT22;38354;52.892;6.148;2022-10-16T07:26:16;13.10;99.90
52435;DHT22;38354;52.892;6.148;2022-10-16T07:28:42;13.10;99.90
52435;DHT22;38354;52.892;6.148;2022-10-16T07:31:11;13.10;99.90
52435;DHT22;38354;52.892;6.148;2022-10-16T07:33:39;13.10;99.90
52435;DHT22;38354;52.892;6.148;2022-10-16T07:36:05;13.20;99.90
52435;DHT22;38354;52.892;6.148;2022-10-16T07:38:30;13.20;99.90
52435;DHT22;38354;52.892;6.148;2022-10-16T07:41:04;13.20;99.90
52435;DHT22;38354;52.892;6.148;2022-10-16T07:43:30;13.20;99.90
52435;DHT22;38354;52.892;6.148;2022-10-16T07:45:57;13.30;99.90
52435;DHT22;38354;52.892;6.148;2022-10-16T07:48:24;13.30;99.90
52435;DHT22;38354;52.892;6.148;2022-10-16T07:50:51;13.30;99.90
52435;DHT22;38354;52.892;6.148;2022-10-16T07:53:17;13.30;99.90
52435;DHT22;38354;52.892;6.148;2022-10-16T07:55:43;13.40;99.90
52435;DHT22;38354;52.892;6.148;2022-10-16T07:58:09;13.40;99.90
52435;DHT22;38354;52.892;6.148;2022-10-16T08:00:36;13.50;99.90
52435;DHT22;38354;52.892;6.148;2022-10-16T08:03:02;13.50;99.90
52435;DHT22;38354;52.892;6.148;2022-10-16T08:05:29;13.60;99.90
52435;DHT22;38354;52.892;6.148;2022-10-16T08:07:56;13.50;99.90
52435;DHT22;38354;52.892;6.148;2022-10-16T08:10:23;13.60;99.90
52435;DHT22;38354;52.892;6.148;2022-10-16T08:12:51;13.60;99.90
52435;DHT22;38354;52.892;6.148;2022-10-16T08:15:17;13.60;99.90
52435;DHT22;38354;52.892;6.148;2022-10-16T08:17:43;13.60;99.90
52435;DHT22;38354;52.892;6.148;2022-10-16T08:20:09;13.60;99.90
52435;DHT22;38354;52.892;6.148;2022-10-16T08:22:35;13.60;99.90
52435;DHT22;38354;52.892;6.148;2022-10-16T08:25:01;13.70;99.90
52435;DHT22;38354;52.892;6.148;2022-10-16T08:27:31;13.70;99.90
52435;DHT22;38354;52.892;6.148;2022-10-16T08:29:57;13.70;99.90
52435;DHT22;38354;52.892;6.148;2022-10-16T08:32:23;13.70;99.90
52435;DHT22;38354;52.892;6.148;2022-10-16T08:34:48;13.80;99.90
52435;DHT22;38354;52.892;6.148;2022-10-16T08:37:14;13.80;99.90
52435;DHT22;38354;52.892;6.148;2022-10-16T08:39:40;13.80;99.90
52435;DHT22;38354;52.892;6.148;2022-10-16T08:48:06;14.00;99.90
52435;DHT22;38354;52.892;6.148;2022-10-16T08:50:36;14.30;99.90
52435;DHT22;38354;52.892;6.148;2022-10-16T08:53:04;14.60;99.90
52435;DHT22;38354;52.892;6.148;2022-10-16T08:55:46;14.70;99.90
52435;DHT22;38354;52.892;6.148;2022-10-16T08:58:20;14.70;99.90
52435;DHT22;38354;52.892;6.148;2022-10-16T09:00:58;14.70;99.90
52435;DHT22;38354;52.892;6.148;2022-10-16T09:09:10;14.90;99.90
52435;DHT22;38354;52.892;6.148;2022-10-16T09:11:46;15.00;99.90
52435;DHT22;38354;52.892;6.148;2022-10-16T09:23:28;15.30;99.90
52435;DHT22;38354;52.892;6.148;2022-10-16T09:25:55;15.40;99.90
52435;DHT22;38354;52.892;6.148;2022-10-16T09:28:21;15.40;99.90
52435;DHT22;38354;52.892;6.148;2022-10-16T09:30:47;15.50;99.90
52435;DHT22;38354;52.892;6.148;2022-10-16T09:33:21;15.70;99.90
52435;DHT22;38354;52.892;6.148;2022-10-16T09:35:51;15.70;99.90
52435;DHT22;38354;52.892;6.148;2022-10-16T09:38:29;15.60;99.90
52435;DHT22;38354;52.892;6.148;2022-10-16T09:40:57;15.60;99.90
52435;DHT22;38354;52.892;6.148;2022-10-16T09:43:42;15.70;99.90
52435;DHT22;38354;52.892;6.148;2022-10-16T09:51:44;16.00;99.90
52435;DHT22;38354;52.892;6.148;2022-10-16T09:56:37;16.10;99.90
52435;DHT22;38354;52.892;6.148;2022-10-16T09:59:12;16.10;99.90
52435;DHT22;38354;52.892;6.148;2022-10-16T10:01:44;16.20;99.90
52435;DHT22;38354;52.892;6.148;2022-10-16T10:04:11;16.20;99.90
52435;DHT22;38354;52.892;6.148;2022-10-16T10:06:50;16.20;99.90
52435;DHT22;38354;52.892;6.148;2022-10-16T10:11:57;16.00;99.90
52435;DHT22;38354;52.892;6.148;2022-10-16T10:14:46;16.00;99.90
52435;DHT22;38354;52.892;6.148;2022-10-16T10:17:16;16.00;99.90
52435;DHT22;38354;52.892;6.148;2022-10-16T10:22:43;16.10;99.90
52435;DHT22;38354;52.892;6.148;2022-10-16T10:33:52;16.30;99.90
52435;DHT22;38354;52.892;6.148;2022-10-16T10:36:29;16.40;99.90
52435;DHT22;38354;52.892;6.148;2022-10-16T10:39:16;16.50;99.90
52435;DHT22;38354;52.892;6.148;2022-10-16T10:56:05;16.30;99.90
52435;DHT22;38354;52.892;6.148;2022-10-16T11:04:32;16.50;99.90
52435;DHT22;38354;52.892;6.148;2022-10-16T11:07:20;16.60;99.90
52435;DHT22;38354;52.892;6.148;2022-10-16T11:09:51;16.70;99.90
52435;DHT22;38354;52.892;6.148;2022-10-16T11:12:27;16.70;99.90
52435;DHT22;38354;52.892;6.148;2022-10-16T11:15:03;16.90;99.90
52435;DHT22;38354;52.892;6.148;2022-10-16T11:17:48;17.00;99.90
52435;DHT22;38354;52.892;6.148;2022-10-16T11:23:30;17.10;99.90
52435;DHT22;38354;52.892;6.148;2022-10-16T11:26:01;17.20;99.90
52435;DHT22;38354;52.892;6.148;2022-10-16T11:28:39;17.30;99.90
52435;DHT22;38354;52.892;6.148;2022-10-16T11:36:56;17.40;99.90
52435;DHT22;38354;52.892;6.148;2022-10-16T11:39:29;17.50;99.90
52435;DHT22;38354;52.892;6.148;2022-10-16T11:42:10;17.40;99.90
52435;DHT22;38354;52.892;6.148;2022-10-16T11:45:02;17.50;99.90
52435;DHT22;38354;52.892;6.148;2022-10-16T11:47:45;17.50;99.90
52435;DHT22;38354;52.892;6.148;2022-10-16T11:53:21;17.40;99.90
52435;DHT22;38354;52.892;6.148;2022-10-16T11:55:49;17.20;99.90
52435;DHT22;38354;52.892;6.148;2022-10-16T11:58:32;17.00;99.90
52435;DHT22;38354;52.892;6.148;2022-10-16T12:06:40;16.60;99.90
52435;DHT22;38354;52.892;6.148;2022-10-16T12:09:20;16.80;99.90
52435;DHT22;38354;52.892;6.148;2022-10-16T12:11:47;17.00;99.90
52435;DHT22;38354;52.892;6.148;2022-10-16T12:16:55;17.30;99.90
52435;DHT22;38354;52.892;6.148;2022-10-16T12:19:22;17.40;99.90
52435;DHT22;38354;52.892;6.148;2022-10-16T12:21:49;17.40;99.90
52435;DHT22;38354;52.892;6.148;2022-10-16T12:24:27;17.60;99.90
52435;DHT22;38354;52.892;6.148;2022-10-16T12:26:53;17.60;99.90
52435;DHT22;38354;52.892;6.148;2022-10-16T12:29:41;17.70;99.90
52435;DHT22;38354;52.892;6.148;2022-10-16T12:32:35;17.60;99.90
52435;DHT22;38354;52.892;6.148;2022-10-16T12:35:02;17.40;99.90
52435;DHT22;38354;52.892;6.148;2022-10-16T12:37:36;17.20;99.90
52435;DHT22;38354;52.892;6.148;2022-10-16T12:42:50;17.30;99.90
52435;DHT22;38354;52.892;6.148;2022-10-16T12:47:52;17.60;99.90
52435;DHT22;38354;52.892;6.148;2022-10-16T12:50:25;17.70;99.90
52435;DHT22;38354;52.892;6.148;2022-10-16T12:52:51;17.70;99.90
52435;DHT22;38354;52.892;6.148;2022-10-16T12:55:18;17.70;99.90
52435;DHT22;38354;52.892;6.148;2022-10-16T13:00:45;17.90;99.90
52435;DHT22;38354;52.892;6.148;2022-10-16T13:17:03;18.30;99.90
52435;DHT22;38354;52.892;6.148;2022-10-16T13:19:36;18.30;99.90
52435;DHT22;38354;52.892;6.148;2022-10-16T13:28:03;18.30;99.90
52435;DHT22;38354;52.892;6.148;2022-10-16T13:30:40;18.30;99.90
52435;DHT22;38354;52.892;6.148;2022-10-16T13:33:14;18.40;99.90
52435;DHT22;38354;52.892;6.148;2022-10-16T13:38:17;18.30;99.90
52435;DHT22;38354;52.892;6.148;2022-10-16T13:40:50;18.20;99.90
52435;DHT22;38354;52.892;6.148;2022-10-16T13:46:04;18.20;99.90
52435;DHT22;38354;52.892;6.148;2022-10-16T13:48:32;18.20;99.90
52435;DHT22;38354;52.892;6.148;2022-10-16T13:51:04;18.00;99.90
52435;DHT22;38354;52.892;6.148;2022-10-16T13:53:35;17.90;99.90
52435;DHT22;38354;52.892;6.148;2022-10-16T13:56:03;17.90;99.90
52435;DHT22;38354;52.892;6.148;2022-10-16T13:58:29;17.80;99.90
52435;DHT22;38354;52.892;6.148;2022-10-16T14:00:58;17.70;99.90
52435;DHT22;38354;52.892;6.148;2022-10-16T14:03:25;17.70;99.90
52435;DHT22;38354;52.892;6.148;2022-10-16T14:06:00;17.70;99.90
52435;DHT22;38354;52.892;6.148;2022-10-16T14:08:27;17.70;99.90
52435;DHT22;38354;52.892;6.148;2022-10-16T14:10:59;17.50;99.90
52435;DHT22;38354;52.892;6.148;2022-10-16T14:13:38;17.40;99.90
52435;DHT22;38354;52.892;6.148;2022-10-16T14:16:07;17.30;99.90
52435;DHT22;38354;52.892;6.148;2022-10-16T14:18:34;17.20;99.90
52435;DHT22;38354;52.892;6.148;2022-10-16T14:21:07;17.10;99.90
52435;DHT22;38354;52.892;6.148;2022-10-16T14:23:38;17.00;99.90
52435;DHT22;38354;52.892;6.148;2022-10-16T14:28:40;16.80;99.90
52435;DHT22;38354;52.892;6.148;2022-10-16T14:31:26;16.80;99.90
52435;DHT22;38354;52.892;6.148;2022-10-16T14:33:52;16.70;99.90
52435;DHT22;38354;52.892;6.148;2022-10-16T14:36:18;16.70;99.90
52435;DHT22;38354;52.892;6.148;2022-10-16T14:39:17;16.70;99.90
52435;DHT22;38354;52.892;6.148;2022-10-16T14:41:46;16.70;99.90
52435;DHT22;38354;52.892;6.148;2022-10-16T14:44:13;16.70;99.90
52435;DHT22;38354;52.892;6.148;2022-10-16T14:46:41;16.60;99.90
52435;DHT22;38354;52.892;6.148;2022-10-16T14:51:37;16.60;99.90
52435;DHT22;38354;52.892;6.148;2022-10-16T14:54:04;16.60;99.90
52435;DHT22;38354;52.892;6.148;2022-10-16T14:56:51;16.50;99.90
52435;DHT22;38354;52.892;6.148;2022-10-16T14:59:21;16.50;99.90
52435;DHT22;38354;52.892;6.148;2022-10-16T15:01:48;16.50;99.90
52435;DHT22;38354;52.892;6.148;2022-10-16T15:04:15;16.50;99.90
52435;DHT22;38354;52.892;6.148;2022-10-16T15:06:42;16.50;99.90
52435;DHT22;38354;52.892;6.148;2022-10-16T15:09:07;16.50;99.90
52435;DHT22;38354;52.892;6.148;2022-10-16T15:11:33;16.50;99.90
52435;DHT22;38354;52.892;6.148;2022-10-16T15:13:59;16.40;99.90
52435;DHT22;38354;52.892;6.148;2022-10-16T15:16:25;16.40;99.90
52435;DHT22;38354;52.892;6.148;2022-10-16T15:18:51;16.40;99.90
52435;DHT22;38354;52.892;6.148;2022-10-16T15:23:50;16.30;99.90
52435;DHT22;38354;52.892;6.148;2022-10-16T15:26:16;16.30;99.90
52435;DHT22;38354;52.892;6.148;2022-10-16T15:28:41;16.30;99.90
52435;DHT22;38354;52.892;6.148;2022-10-16T15:31:07;16.20;99.90
52435;DHT22;38354;52.892;6.148;2022-10-16T15:33:33;16.20;99.90
52435;DHT22;38354;52.892;6.148;2022-10-16T15:36:00;16.10;99.90
52435;DHT22;38354;52.892;6.148;2022-10-16T15:38:27;16.10;99.90
52435;DHT22;38354;52.892;6.148;2022-10-16T15:40:53;16.10;99.90
52435;DHT22;38354;52.892;6.148;2022-10-16T15:43:19;16.00;99.90
52435;DHT22;38354;52.892;6.148;2022-10-16T15:45:59;16.00;99.90
52435;DHT22;38354;52.892;6.148;2022-10-16T15:48:27;15.90;99.90
52435;DHT22;38354;52.892;6.148;2022-10-16T15:50:52;15.90;99.90
52435;DHT22;38354;52.892;6.148;2022-10-16T15:53:18;15.90;99.90
52435;DHT22;38354;52.892;6.148;2022-10-16T15:55:44;15.80;99.90
52435;DHT22;38354;52.892;6.148;2022-10-16T15:58:09;15.80;99.90
52435;DHT22;38354;52.892;6.148;2022-10-16T16:00:35;15.80;99.90
52435;DHT22;38354;52.892;6.148;2022-10-16T16:03:00;15.80;99.90
52435;DHT22;38354;52.892;6.148;2022-10-16T16:05:26;15.70;99.90
52435;DHT22;38354;52.892;6.148;2022-10-16T16:07:53;15.70;99.90
52435;DHT22;38354;52.892;6.148;2022-10-16T16:10:19;15.70;99.90
52435;DHT22;38354;52.892;6.148;2022-10-16T16:12:49;15.60;99.90
52435;DHT22;38354;52.892;6.148;2022-10-16T16:15:21;15.50;99.90
52435;DHT22;38354;52.892;6.148;2022-10-16T16:17:47;15.50;99.90
52435;DHT22;38354;52.892;6.148;2022-10-16T16:20:13;15.40;99.90
52435;DHT22;38354;52.892;6.148;2022-10-16T16:22:38;15.30;99.90
52435;DHT22;38354;52.892;6.148;2022-10-16T16:25:04;15.20;99.90
52435;DHT22;38354;52.892;6.148;2022-10-16T16:27:30;15.10;99.90
52435;DHT22;38354;52.892;6.148;2022-10-16T16:30:00;15.10;99.90
52435;DHT22;38354;52.892;6.148;2022-10-16T16:32:25;15.00;99.90
52435;DHT22;38354;52.892;6.148;2022-10-16T16:34:51;15.00;99.90
52435;DHT22;38354;52.892;6.148;2022-10-16T16:37:17;14.90;99.90
52435;DHT22;38354;52.892;6.148;2022-10-16T16:39:43;14.80;99.90
52435;DHT22;38354;52.892;6.148;2022-10-16T16:42:08;14.70;99.90
52435;DHT22;38354;52.892;6.148;2022-10-16T16:44:35;14.70;99.90
52435;DHT22;38354;52.892;6.148;2022-10-16T16:47:02;14.60;99.90
52435;DHT22;38354;52.892;6.148;2022-10-16T16:49:28;14.50;99.90
52435;DHT22;38354;52.892;6.148;2022-10-16T16:51:54;14.40;99.90
52435;DHT22;38354;52.892;6.148;2022-10-16T16:54:20;14.40;99.90
52435;DHT22;38354;52.892;6.148;2022-10-16T16:56:45;14.30;99.90
52435;DHT22;38354;52.892;6.148;2022-10-16T16:59:13;14.20;99.90
52435;DHT22;38354;52.892;6.148;2022-10-16T17:01:40;14.20;99.90
52435;DHT22;38354;52.892;6.148;2022-10-16T17:04:06;14.10;99.90
52435;DHT22;38354;52.892;6.148;2022-10-16T17:06:32;14.10;99.90
52435;DHT22;38354;52.892;6.148;2022-10-16T17:09:00;14.00;99.90
52435;DHT22;38354;52.892;6.148;2022-10-16T17:11:26;14.00;99.90
52435;DHT22;38354;52.892;6.148;2022-10-16T17:13:54;13.90;99.90
52435;DHT22;38354;52.892;6.148;2022-10-16T17:16:21;13.80;99.90
52435;DHT22;38354;52.892;6.148;2022-10-16T17:18:47;13.80;99.90
52435;DHT22;38354;52.892;6.148;2022-10-16T17:21:12;13.70;99.90
52435;DHT22;38354;52.892;6.148;2022-10-16T17:23:38;13.60;99.90
52435;DHT22;38354;52.892;6.148;2022-10-16T17:26:11;13.60;99.90
52435;DHT22;38354;52.892;6.148;2022-10-16T17:28:36;13.50;99.90
52435;DHT22;38354;52.892;6.148;2022-10-16T17:31:17;13.50;99.90
52435;DHT22;38354;52.892;6.148;2022-10-16T17:33:44;13.40;99.90
52435;DHT22;38354;52.892;6.148;2022-10-16T17:36:10;13.40;99.90
52435;DHT22;38354;52.892;6.148;2022-10-16T17:38:39;13.40;99.90
52435;DHT22;38354;52.892;6.148;2022-10-16T17:41:20;13.40;99.90
52435;DHT22;38354;52.892;6.148;2022-10-16T17:43:47;13.30;99.90
52435;DHT22;38354;52.892;6.148;2022-10-16T17:46:14;13.30;99.90
52435;DHT22;38354;52.892;6.148;2022-10-16T17:48:43;13.30;99.90
52435;DHT22;38354;52.892;6.148;2022-10-16T17:51:12;13.20;99.90
52435;DHT22;38354;52.892;6.148;2022-10-16T17:53:39;13.20;99.90
52435;DHT22;38354;52.892;6.148;2022-10-16T17:56:10;13.20;99.90
52435;DHT22;38354;52.892;6.148;2022-10-16T17:58:36;13.20;99.90
52435;DHT22;38354;52.892;6.148;2022-10-16T18:01:12;13.20;99.90
52435;DHT22;38354;52.892;6.148;2022-10-16T18:03:37;13.20;99.90
52435;DHT22;38354;52.892;6.148;2022-10-16T18:06:03;13.20;99.90
52435;DHT22;38354;52.892;6.148;2022-10-16T18:08:29;13.20;99.90
52435;DHT22;38354;52.892;6.148;2022-10-16T18:10:55;13.20;99.90
52435;DHT22;38354;52.892;6.148;2022-10-16T18:13:21;13.10;99.90
52435;DHT22;38354;52.892;6.148;2022-10-16T18:15:46;13.10;99.90
52435;DHT22;38354;52.892;6.148;2022-10-16T18:18:12;13.10;99.90
52435;DHT22;38354;52.892;6.148;2022-10-16T18:20:38;13.10;99.90
52435;DHT22;38354;52.892;6.148;2022-10-16T18:23:04;13.10;99.90
52435;DHT22;38354;52.892;6.148;2022-10-16T18:25:30;13.00;99.90
52435;DHT22;38354;52.892;6.148;2022-10-16T18:27:55;13.00;99.90
52435;DHT22;38354;52.892;6.148;2022-10-16T18:33:03;12.80;99.90
52435;DHT22;38354;52.892;6.148;2022-10-16T18:35:28;12.80;99.90
52435;DHT22;38354;52.892;6.148;2022-10-16T18:37:54;12.80;99.90
52435;DHT22;38354;52.892;6.148;2022-10-16T18:40:23;12.80;99.90
52435;DHT22;38354;52.892;6.148;2022-10-16T18:42:48;12.80;99.90
52435;DHT22;38354;52.892;6.148;2022-10-16T18:45:14;12.80;99.90
52435;DHT22;38354;52.892;6.148;2022-10-16T18:47:40;12.80;99.90
52435;DHT22;38354;52.892;6.148;2022-10-16T18:50:06;12.80;99.90
52435;DHT22;38354;52.892;6.148;2022-10-16T18:52:31;12.80;99.90
52435;DHT22;38354;52.892;6.148;2022-10-16T18:54:57;12.70;99.90
52435;DHT22;38354;52.892;6.148;2022-10-16T18:57:23;12.70;99.90
52435;DHT22;38354;52.892;6.148;2022-10-16T18:59:49;12.70;99.90
52435;DHT22;38354;52.892;6.148;2022-10-16T19:02:14;12.60;99.90
52435;DHT22;38354;52.892;6.148;2022-10-16T19:04:40;12.60;99.90
52435;DHT22;38354;52.892;6.148;2022-10-16T19:07:06;12.60;99.90
52435;DHT22;38354;52.892;6.148;2022-10-16T19:09:32;12.60;99.90
52435;DHT22;38354;52.892;6.148;2022-10-16T19:11:57;12.70;99.90
52435;DHT22;38354;52.892;6.148;2022-10-16T19:14:24;12.70;99.90
52435;DHT22;38354;52.892;6.148;2022-10-16T19:16:49;12.70;99.90
52435;DHT22;38354;52.892;6.148;2022-10-16T19:19:16;12.70;99.90
52435;DHT22;38354;52.892;6.148;2022-10-16T19:21:45;12.70;99.90
52435;DHT22;38354;52.892;6.148;2022-10-16T19:24:13;12.60;99.90
52435;DHT22;38354;52.892;6.148;2022-10-16T19:26:39;12.70;99.90
52435;DHT22;38354;52.892;6.148;2022-10-16T19:29:06;12.60;99.90
52435;DHT22;38354;52.892;6.148;2022-10-16T19:31:32;12.60;99.90
52435;DHT22;38354;52.892;6.148;2022-10-16T19:34:00;12.60;99.90
52435;DHT22;38354;52.892;6.148;2022-10-16T19:36:35;12.50;99.90
52435;DHT22;38354;52.892;6.148;2022-10-16T19:39:06;12.60;99.90
52435;DHT22;38354;52.892;6.148;2022-10-16T19:41:33;12.60;99.90
52435;DHT22;38354;52.892;6.148;2022-10-16T19:44:01;12.60;99.90
52435;DHT22;38354;52.892;6.148;2022-10-16T19:46:27;12.60;99.90
52435;DHT22;38354;52.892;6.148;2022-10-16T19:48:55;12.60;99.90
52435;DHT22;38354;52.892;6.148;2022-10-16T19:51:22;12.70;99.90
52435;DHT22;38354;52.892;6.148;2022-10-16T19:53:51;12.70;99.90
52435;DHT22;38354;52.892;6.148;2022-10-16T19:56:19;12.70;99.90
52435;DHT22;38354;52.892;6.148;2022-10-16T19:58:48;12.70;99.90
52435;DHT22;38354;52.892;6.148;2022-10-16T20:01:15;12.70;99.90
52435;DHT22;38354;52.892;6.148;2022-10-16T20:03:45;12.60;99.90
52435;DHT22;38354;52.892;6.148;2022-10-16T20:06:12;12.70;99.90
52435;DHT22;38354;52.892;6.148;2022-10-16T20:08:39;12.60;99.90
52435;DHT22;38354;52.892;6.148;2022-10-16T20:11:09;12.60;99.90
52435;DHT22;38354;52.892;6.148;2022-10-16T20:13:36;12.60;99.90
52435;DHT22;38354;52.892;6.148;2022-10-16T20:16:02;12.60;99.90
52435;DHT22;38354;52.892;6.148;2022-10-16T20:18:28;12.60;99.90
52435;DHT22;38354;52.892;6.148;2022-10-16T20:20:54;12.50;99.90
52435;DHT22;38354;52.892;6.148;2022-10-16T20:23:20;12.60;99.90
52435;DHT22;38354;52.892;6.148;2022-10-16T20:25:48;12.60;99.90
52435;DHT22;38354;52.892;6.148;2022-10-16T20:28:16;12.60;99.90
52435;DHT22;38354;52.892;6.148;2022-10-16T20:30:44;12.60;99.90
52435;DHT22;38354;52.892;6.148;2022-10-16T20:33:10;12.60;99.90
52435;DHT22;38354;52.892;6.148;2022-10-16T20:35:38;12.50;99.90
52435;DHT22;38354;52.892;6.148;2022-10-16T20:38:04;12.50;99.90
52435;DHT22;38354;52.892;6.148;2022-10-16T20:40:32;12.50;99.90
52435;DHT22;38354;52.892;6.148;2022-10-16T20:42:58;12.50;99.90
52435;DHT22;38354;52.892;6.148;2022-10-16T20:45:23;12.50;99.90
52435;DHT22;38354;52.892;6.148;2022-10-16T20:47:49;12.50;99.90
52435;DHT22;38354;52.892;6.148;2022-10-16T20:50:15;12.50;99.90
52435;DHT22;38354;52.892;6.148;2022-10-16T20:52:41;12.60;99.90
52435;DHT22;38354;52.892;6.148;2022-10-16T20:55:07;12.60;99.90
52435;DHT22;38354;52.892;6.148;2022-10-16T20:57:33;12.60;99.90
52435;DHT22;38354;52.892;6.148;2022-10-16T20:59:58;12.60;99.90
52435;DHT22;38354;52.892;6.148;2022-10-16T21:02:24;12.60;99.90
52435;DHT22;38354;52.892;6.148;2022-10-16T21:04:50;12.70;99.90
52435;DHT22;38354;52.892;6.148;2022-10-16T21:07:15;12.70;99.90
52435;DHT22;38354;52.892;6.148;2022-10-16T21:09:42;12.70;99.90
52435;DHT22;38354;52.892;6.148;2022-10-16T21:12:08;12.70;99.90
52435;DHT22;38354;52.892;6.148;2022-10-16T21:14:34;12.80;99.90
52435;DHT22;38354;52.892;6.148;2022-10-16T21:17:00;12.80;99.90
52435;DHT22;38354;52.892;6.148;2022-10-16T21:19:29;12.80;99.90
52435;DHT22;38354;52.892;6.148;2022-10-16T21:21:55;12.80;99.90
52435;DHT22;38354;52.892;6.148;2022-10-16T21:24:21;12.80;99.90
52435;DHT22;38354;52.892;6.148;2022-10-16T21:26:46;12.90;99.90
52435;DHT22;38354;52.892;6.148;2022-10-16T21:29:12;12.90;99.90
52435;DHT22;38354;52.892;6.148;2022-10-16T21:31:38;12.90;99.90
52435;DHT22;38354;52.892;6.148;2022-10-16T21:34:04;12.90;99.90
52435;DHT22;38354;52.892;6.148;2022-10-16T21:36:35;12.90;99.90
52435;DHT22;38354;52.892;6.148;2022-10-16T21:39:06;13.00;99.90
52435;DHT22;38354;52.892;6.148;2022-10-16T21:41:33;13.00;99.90
52435;DHT22;38354;52.892;6.148;2022-10-16T21:43:59;13.00;99.90
52435;DHT22;38354;52.892;6.148;2022-10-16T21:46:27;13.00;99.90
52435;DHT22;38354;52.892;6.148;2022-10-16T21:48:54;13.00;99.90